Time;durP1;ratioP1;P1;durP2;ratioP2;P2;SDS_P1;SDS_P2;PMS_P1;PMS_P2;Temp;Humidity;BMP_temperature;BMP_pressure;BME280_temperature;BME280_humidity;BME280_pressure;Samples;Min_cycle;Max_cycle;Signal;HPM_P1;HPM_P2
2023/02/16 00:01:34;;;;;;;41.05;28.50;;;5.90;99.90;;;;;;5061384;28;20876;-43
2023/02/16 00:04:01;;;;;;;44.25;28.88;;;5.80;99.90;;;;;;5060879;28;20048;-43
2023/02/16 00:06:28;;;;;;;44.85;29.15;;;5.80;99.90;;;;;;5062154;28;20028;-43
2023/02/16 00:08:55;;;;;;;41.08;28.02;;;5.70;99.90;;;;;;5060468;28;20052;-43
2023/02/16 00:14:25;;;;;;;48.10;28.80;;;5.60;99.90;;;;;;5060258;28;20140;-43
2023/02/16 00:16:55;;;;;;;43.58;28.70;;;5.60;99.90;;;;;;5061067;28;20534;-43
2023/02/16 00:19:26;;;;;;;41.70;27.90;;;5.60;99.90;;;;;;5060775;28;20029;-43
2023/02/16 00:21:55;;;;;;;44.38;27.25;;;5.60;99.90;;;;;;5060973;28;20114;-43
2023/02/16 00:24:21;;;;;;;43.70;28.33;;;5.60;99.90;;;;;;5061931;28;20028;-43
2023/02/16 00:26:47;;;;;;;43.92;28.45;;;5.50;99.90;;;;;;5061746;28;20085;-43
2023/02/16 00:29:25;;;;;;;43.25;28.00;;;5.50;99.90;;;;;;5060956;28;20035;-43
2023/02/16 00:31:51;;;;;;;44.80;27.42;;;5.50;99.90;;;;;;5041090;28;20512;-43
2023/02/16 00:34:37;;;;;;;42.63;28.13;;;5.50;99.90;;;;;;5055938;28;20025;-43
2023/02/16 00:37:08;;;;;;;45.85;29.42;;;5.40;99.90;;;;;;5041006;28;20029;-43
2023/02/16 00:39:35;;;;;;;43.70;27.15;;;5.40;99.90;;;;;;5056970;28;20090;-43
2023/02/16 00:42:04;;;;;;;41.17;26.83;;;5.30;99.90;;;;;;5060351;28;20043;-43
2023/02/16 00:44:43;;;;;;;47.55;29.92;;;5.30;99.90;;;;;;5061198;28;20035;-43
2023/02/16 00:47:18;;;;;;;45.03;29.10;;;5.30;99.90;;;;;;5061185;28;20027;-43
2023/02/16 00:49:44;;;;;;;39.90;27.02;;;5.30;99.90;;;;;;5060137;28;20039;-42
2023/02/16 00:52:28;;;;;;;39.38;26.25;;;5.30;99.90;;;;;;5060630;28;20025;-42
2023/02/16 00:54:53;;;;;;;40.40;28.38;;;5.20;99.90;;;;;;5060266;28;20569;-43
2023/02/16 00:57:19;;;;;;;43.63;28.50;;;5.20;99.90;;;;;;5060974;28;20529;-43
2023/02/16 00:59:46;;;;;;;43.00;28.23;;;5.20;99.90;;;;;;5061145;28;20024;-43
2023/02/16 01:02:12;;;;;;;44.45;27.80;;;5.20;99.90;;;;;;5061242;28;20040;-43
2023/02/16 01:04:38;;;;;;;41.88;27.48;;;5.20;99.90;;;;;;5060386;28;20426;-43
2023/02/16 01:12:40;;;;;;;39.78;26.63;;;5.20;99.90;;;;;;5060517;28;20043;-43
2023/02/16 01:15:11;;;;;;;43.15;27.65;;;5.20;99.90;;;;;;5060249;28;20052;-43
2023/02/16 01:17:37;;;;;;;40.00;26.15;;;5.20;99.90;;;;;;5059773;28;20816;-43
2023/02/16 01:20:13;;;;;;;41.40;26.80;;;5.20;99.90;;;;;;5059871;28;20106;-42
2023/02/16 01:22:41;;;;;;;40.67;27.50;;;5.20;99.90;;;;;;5060108;28;20025;-43
2023/02/16 01:25:08;;;;;;;40.42;27.27;;;5.20;99.90;;;;;;5058739;28;20078;-43
2023/02/16 01:27:36;;;;;;;42.10;27.15;;;5.30;99.90;;;;;;5059692;28;20060;-43
2023/02/16 01:30:04;;;;;;;42.17;27.98;;;5.20;99.90;;;;;;5059885;28;20028;-43
2023/02/16 01:32:29;;;;;;;44.47;27.60;;;5.20;99.90;;;;;;5059412;28;20886;-43
2023/02/16 01:34:55;;;;;;;41.80;26.90;;;5.20;99.90;;;;;;5060091;28;20028;-43
2023/02/16 01:37:20;;;;;;;41.75;28.73;;;5.20;99.90;;;;;;5060834;28;20127;-43
2023/02/16 01:39:46;;;;;;;43.30;28.15;;;5.20;99.90;;;;;;5059391;28;20039;-43
2023/02/16 01:42:35;;;;;;;43.42;28.27;;;5.20;99.90;;;;;;5059825;28;20031;-43
2023/02/16 01:45:12;;;;;;;44.08;27.77;;;5.20;99.90;;;;;;5060647;28;20855;-43
2023/02/16 01:47:49;;;;;;;40.38;27.52;;;5.20;99.90;;;;;;5056725;28;20062;-43
2023/02/16 01:50:21;;;;;;;41.58;28.20;;;5.20;99.90;;;;;;5060183;28;20450;-43
2023/02/16 01:52:57;;;;;;;43.60;28.42;;;5.10;99.90;;;;;;5055765;28;20025;-43
2023/02/16 01:55:31;;;;;;;43.83;28.95;;;5.10;99.90;;;;;;5059490;28;20036;-43
2023/02/16 01:58:07;;;;;;;42.38;27.90;;;5.10;99.90;;;;;;5055405;28;20899;-43
2023/02/16 02:00:50;;;;;;;43.08;29.70;;;5.00;99.90;;;;;;5059037;28;20059;-43
2023/02/16 02:06:11;;;;;;;42.10;29.08;;;5.00;99.90;;;;;;5060990;28;20400;-43
2023/02/16 02:08:57;;;;;;;43.90;28.25;;;4.90;99.90;;;;;;5060237;28;20033;-43
2023/02/16 02:11:31;;;;;;;45.78;29.17;;;4.90;99.90;;;;;;5060603;28;20628;-43
2023/02/16 02:14:18;;;;;;;43.28;28.33;;;4.80;99.90;;;;;;5048997;28;20028;-43
2023/02/16 02:16:58;;;;;;;46.22;30.10;;;4.80;99.90;;;;;;5060306;28;20025;-43
2023/02/16 02:19:24;;;;;;;40.70;27.63;;;4.80;99.90;;;;;;5060138;28;20118;-43
2023/02/16 02:25:06;;;;;;;42.30;28.25;;;4.70;99.90;;;;;;5053560;28;20035;-43
2023/02/16 02:27:39;;;;;;;45.80;28.92;;;4.70;99.90;;;;;;5058968;28;20449;-43
2023/02/16 02:30:24;;;;;;;;;;;4.70;99.90;;;;;;5060894;28;20035;-43
2023/02/16 02:33:17;;;;;;;41.80;27.90;;;4.70;99.90;;;;;;5058563;28;19985;-44
2023/02/16 02:36:07;;;;;;;41.42;26.95;;;4.60;99.90;;;;;;5058487;28;20029;-43
2023/02/16 02:38:56;;;;;;;41.15;27.00;;;4.60;99.90;;;;;;5063675;28;20028;-43
2023/02/16 02:44:20;;;;;;;40.75;26.75;;;4.50;99.90;;;;;;5063440;28;20082;-44
2023/02/16 02:46:46;;;;;;;40.75;26.52;;;4.50;99.90;;;;;;5063797;28;20043;-44
2023/02/16 02:49:12;;;;;;;43.08;27.67;;;4.50;99.90;;;;;;5062877;28;20037;-43
2023/02/16 02:51:39;;;;;;;41.55;27.55;;;4.50;99.90;;;;;;5062948;28;20024;-43
2023/02/16 03:03:08;;;;;;;44.17;27.85;;;4.70;99.90;;;;;;5062279;28;20568;-43
2023/02/16 03:05:37;;;;;;;46.20;28.60;;;4.70;99.90;;;;;;5062523;28;20047;-42
2023/02/16 03:08:14;;;;;;;44.63;29.05;;;4.70;99.90;;;;;;5062325;28;20090;-43
2023/02/16 03:13:38;;;;;;;42.10;28.10;;;4.80;99.90;;;;;;5062663;28;20047;-43
2023/02/16 03:16:12;;;;;;;39.85;27.45;;;4.80;99.90;;;;;;5052315;28;20059;-44
2023/02/16 03:29:49;;;;;;;42.17;27.90;;;4.80;99.90;;;;;;5062108;28;20070;-43
2023/02/16 03:32:16;;;;;;;40.38;27.90;;;4.70;99.90;;;;;;5061916;28;20032;-44
2023/02/16 03:34:42;;;;;;;42.67;28.38;;;4.70;99.90;;;;;;5062168;28;20024;-45
2023/02/16 03:37:08;;;;;;;42.78;28.77;;;4.70;99.90;;;;;;5062262;28;20060;-43
2023/02/16 03:40:26;;;;;;;42.80;28.98;;;4.70;99.90;;;;;;5061816;28;20537;-43
2023/02/16 03:42:20;;;;;;;43.28;28.42;;;4.70;99.90;;;;;;5061717;28;20644;-44
2023/02/16 03:44:46;;;;;;;41.78;28.17;;;4.60;99.90;;;;;;5061088;28;20031;-44
2023/02/16 03:47:12;;;;;;;42.15;28.17;;;4.60;99.90;;;;;;5062150;28;20032;-44
2023/02/16 03:49:37;;;;;;;45.03;29.92;;;4.50;99.90;;;;;;5060379;28;20047;-44
2023/02/16 03:52:03;;;;;;;45.35;28.35;;;4.50;99.90;;;;;;5060753;28;20040;-44
2023/02/16 03:54:29;;;;;;;41.20;27.35;;;4.50;99.90;;;;;;5061936;28;20028;-43
2023/02/16 03:56:54;;;;;;;42.70;27.77;;;4.50;99.90;;;;;;5057614;28;20024;-43
2023/02/16 03:59:20;;;;;;;39.50;26.92;;;4.50;99.90;;;;;;5062019;28;20028;-43
2023/02/16 04:01:45;;;;;;;40.28;27.23;;;4.50;99.90;;;;;;5061613;28;20021;-44
2023/02/16 04:04:11;;;;;;;45.60;30.08;;;4.50;99.90;;;;;;5061995;28;20033;-44
2023/02/16 04:06:37;;;;;;;44.67;29.75;;;4.50;99.90;;;;;;5061160;28;20123;-43
2023/02/16 04:09:03;;;;;;;45.13;29.45;;;4.60;99.90;;;;;;5041952;28;20063;-45
2023/02/16 04:14:13;;;;;;;42.75;29.52;;;4.60;99.90;;;;;;5061762;28;20499;-45
2023/02/16 04:16:38;;;;;;;41.38;28.20;;;4.70;99.90;;;;;;5061042;28;20029;-43
2023/02/16 04:19:05;;;;;;;43.22;28.05;;;4.70;99.90;;;;;;5061233;28;20862;-43
2023/02/16 04:21:30;;;;;;;41.53;27.55;;;4.80;99.90;;;;;;5060597;28;20050;-44
2023/02/16 04:23:56;;;;;;;41.60;27.88;;;4.90;99.90;;;;;;5060884;28;20021;-43
2023/02/16 04:26:21;;;;;;;40.42;27.15;;;5.00;99.90;;;;;;5061223;28;20723;-43
2023/02/16 04:28:49;;;;;;;40.53;27.05;;;5.10;99.90;;;;;;5061230;28;20037;-43
2023/02/16 04:31:15;;;;;;;39.35;26.20;;;5.20;99.90;;;;;;5061633;28;20021;-42
2023/02/16 04:33:40;;;;;;;38.78;25.42;;;5.20;99.90;;;;;;5060363;28;20028;-43
2023/02/16 04:36:07;;;;;;;41.85;26.33;;;5.30;99.90;;;;;;5060855;28;20013;-43
2023/02/16 04:38:32;;;;;;;42.60;27.63;;;5.40;99.90;;;;;;5061165;28;20024;-43
2023/02/16 04:40:58;;;;;;;42.08;26.75;;;5.40;99.90;;;;;;5059405;28;20077;-43
2023/02/16 04:43:23;;;;;;;42.42;28.02;;;5.40;99.90;;;;;;5060989;28;20108;-44
2023/02/16 04:45:49;;;;;;;41.67;25.33;;;5.50;99.90;;;;;;5060411;28;20033;-44
2023/02/16 04:48:14;;;;;;;39.70;25.20;;;5.50;99.90;;;;;;5060204;28;20029;-44
2023/02/16 04:50:40;;;;;;;39.42;25.40;;;5.50;99.90;;;;;;5060610;28;20032;-44
2023/02/16 04:53:06;;;;;;;41.45;25.73;;;5.60;99.90;;;;;;5059767;28;20028;-44
2023/02/16 04:55:32;;;;;;;38.78;25.35;;;5.60;99.90;;;;;;5060260;28;20033;-44
2023/02/16 04:57:57;;;;;;;38.75;26.20;;;5.60;99.90;;;;;;5060070;28;20760;-44
2023/02/16 05:00:23;;;;;;;40.85;26.02;;;5.60;99.90;;;;;;5060571;28;20121;-44
2023/02/16 05:02:48;;;;;;;40.10;27.23;;;5.60;99.90;;;;;;5058637;28;20056;-42
2023/02/16 05:05:14;;;;;;;42.85;27.65;;;5.60;99.90;;;;;;5061140;28;20029;-43
2023/02/16 05:07:40;;;;;;;39.45;26.20;;;5.70;99.90;;;;;;5060177;28;20090;-44
2023/02/16 05:10:06;;;;;;;43.63;28.05;;;5.70;99.90;;;;;;5059665;28;20063;-43
2023/02/16 05:15:15;;;;;;;39.50;26.10;;;5.70;99.90;;;;;;5052990;28;20447;-43
2023/02/16 05:17:41;;;;;;;41.03;26.48;;;5.80;99.90;;;;;;5059610;28;20119;-43
2023/02/16 05:20:07;;;;;;;39.17;27.08;;;5.80;99.90;;;;;;5060731;28;20040;-43
2023/02/16 05:22:34;;;;;;;41.08;26.55;;;5.80;99.90;;;;;;5060412;28;20025;-43
2023/02/16 05:25:00;;;;;;;42.72;25.95;;;5.80;99.90;;;;;;5059688;28;20029;-44
2023/02/16 05:27:28;;;;;;;41.17;27.83;;;5.80;99.90;;;;;;5060610;28;20056;-43
2023/02/16 05:29:54;;;;;;;42.05;27.63;;;5.80;99.90;;;;;;5058667;28;20468;-44
2023/02/16 05:32:20;;;;;;;40.83;26.17;;;5.80;99.90;;;;;;5060045;28;20020;-43
2023/02/16 05:34:46;;;;;;;41.70;27.17;;;5.90;99.90;;;;;;5059373;28;20024;-42
2023/02/16 05:37:14;;;;;;;42.70;28.33;;;5.80;99.90;;;;;;5059946;28;20105;-43
2023/02/16 05:39:40;;;;;;;42.10;27.20;;;5.80;99.90;;;;;;5059661;28;20051;-44
2023/02/16 05:42:05;;;;;;;41.35;28.38;;;5.90;99.90;;;;;;5059599;28;20475;-43
2023/02/16 05:44:31;;;;;;;42.10;28.17;;;5.90;99.90;;;;;;5059229;28;20021;-43
2023/02/16 05:46:56;;;;;;;43.97;28.60;;;5.90;99.90;;;;;;5058869;28;20541;-43
2023/02/16 05:49:22;;;;;;;43.78;29.75;;;5.90;99.90;;;;;;5059960;28;20427;-43
2023/02/16 05:51:48;;;;;;;43.55;28.40;;;5.90;99.90;;;;;;5059064;28;20464;-43
2023/02/16 05:54:16;;;;;;;43.17;28.90;;;5.90;99.90;;;;;;5059404;28;20032;-42
2023/02/16 05:56:51;;;;;;;43.03;28.15;;;5.90;99.90;;;;;;5059653;28;20054;-44
2023/02/16 05:59:17;;;;;;;42.35;28.60;;;5.80;99.90;;;;;;5058988;28;20019;-44
2023/02/16 06:01:45;;;;;;;44.38;28.55;;;5.90;99.90;;;;;;5059337;28;20826;-43
2023/02/16 06:04:11;;;;;;;47.95;29.40;;;5.90;99.90;;;;;;5059880;28;20513;-44
2023/02/16 06:06:38;;;;;;;46.95;29.67;;;5.90;99.90;;;;;;5059012;28;20044;-45
2023/02/16 06:09:06;;;;;;;41.80;27.88;;;5.90;99.90;;;;;;5059589;28;20123;-44
2023/02/16 06:11:35;;;;;;;44.63;28.95;;;5.90;99.90;;;;;;5059180;28;20039;-44
2023/02/16 06:14:04;;;;;;;44.03;28.90;;;5.90;99.90;;;;;;5058555;28;20721;-44
2023/02/16 06:16:32;;;;;;;46.55;29.75;;;5.90;99.90;;;;;;5059451;28;20036;-43
2023/02/16 06:18:58;;;;;;;46.70;29.00;;;5.90;99.90;;;;;;5058376;28;20097;-43
2023/02/16 06:21:25;;;;;;;46.28;30.38;;;5.90;99.90;;;;;;5058977;28;20047;-43
2023/02/16 06:23:51;;;;;;;41.65;27.85;;;5.90;99.90;;;;;;5059126;28;20186;-42
2023/02/16 06:26:17;;;;;;;42.97;28.40;;;6.00;99.90;;;;;;5060093;28;20029;-44
2023/02/16 06:28:43;;;;;;;41.40;27.77;;;6.00;99.90;;;;;;5059135;28;20043;-43
2023/02/16 06:31:09;;;;;;;41.60;28.45;;;6.00;99.90;;;;;;5059265;28;20016;-44
2023/02/16 06:33:35;;;;;;;44.67;29.60;;;6.00;99.90;;;;;;5058621;28;20032;-43
2023/02/16 06:36:00;;;;;;;43.13;28.20;;;6.00;99.90;;;;;;5059864;28;20031;-43
2023/02/16 06:38:26;;;;;;;41.60;28.48;;;6.00;99.90;;;;;;5059644;28;20094;-43
2023/02/16 06:40:53;;;;;;;42.10;28.33;;;6.00;99.90;;;;;;5057408;28;20653;-43
2023/02/16 06:43:19;;;;;;;43.42;28.52;;;6.10;99.90;;;;;;5059806;28;20031;-44
2023/02/16 06:45:45;;;;;;;43.30;28.25;;;6.10;99.90;;;;;;5058863;28;20551;-45
2023/02/16 06:48:11;;;;;;;42.15;28.08;;;6.10;99.90;;;;;;5058581;28;20499;-44
2023/02/16 06:50:36;;;;;;;43.72;29.60;;;6.10;99.90;;;;;;5059349;28;20044;-43
2023/02/16 06:53:02;;;;;;;41.60;27.73;;;6.10;99.90;;;;;;5059148;28;20024;-43
2023/02/16 06:55:30;;;;;;;43.53;27.45;;;6.20;99.90;;;;;;5059154;28;20044;-43
2023/02/16 06:57:55;;;;;;;40.63;26.80;;;6.10;99.90;;;;;;5058863;28;20024;-43
2023/02/16 07:00:21;;;;;;;43.83;29.05;;;6.20;99.90;;;;;;5060183;28;20044;-44
2023/02/16 07:02:47;;;;;;;39.88;27.23;;;6.20;99.90;;;;;;5058244;28;20064;-44
2023/02/16 07:05:12;;;;;;;43.15;27.70;;;6.20;99.90;;;;;;5059931;28;20064;-44
2023/02/16 07:07:38;;;;;;;40.22;25.70;;;6.20;99.90;;;;;;5059139;28;20449;-43
2023/02/16 07:10:04;;;;;;;39.47;27.13;;;6.30;99.90;;;;;;5058741;28;20071;-43
2023/02/16 07:12:29;;;;;;;35.08;23.98;;;6.30;99.90;;;;;;5059002;28;20024;-43
2023/02/16 07:14:58;;;;;;;42.72;27.48;;;6.30;99.90;;;;;;5057969;28;20075;-44
2023/02/16 07:17:23;;;;;;;45.15;28.17;;;6.30;99.90;;;;;;5058204;28;20035;-43
2023/02/16 07:19:49;;;;;;;42.50;26.92;;;6.30;99.90;;;;;;5058314;28;20647;-43
2023/02/16 07:22:15;;;;;;;39.53;27.60;;;6.30;99.90;;;;;;5059650;28;20021;-42
2023/02/16 07:24:43;;;;;;;42.47;28.02;;;6.30;99.90;;;;;;5061052;28;20028;-43
2023/02/16 07:27:09;;;;;;;41.40;27.83;;;6.30;99.90;;;;;;5062513;28;20108;-43
2023/02/16 07:29:34;;;;;;;47.72;29.20;;;6.30;99.90;;;;;;5062573;28;20044;-44
2023/02/16 07:32:01;;;;;;;44.03;30.40;;;6.30;99.90;;;;;;5061612;28;20039;-43
2023/02/16 07:34:27;;;;;;;44.53;28.58;;;6.30;99.90;;;;;;5062386;28;20041;-43
2023/02/16 07:36:52;;;;;;;44.67;29.20;;;6.30;99.90;;;;;;5061326;28;20029;-43
2023/02/16 07:39:18;;;;;;;45.78;29.85;;;6.40;99.90;;;;;;5062965;28;20025;-43
2023/02/16 07:41:44;;;;;;;48.38;30.83;;;6.40;99.90;;;;;;5061914;28;20780;-43
2023/02/16 07:44:09;;;;;;;44.88;30.08;;;6.40;99.90;;;;;;5061671;28;20036;-43
2023/02/16 07:46:35;;;;;;;41.97;28.65;;;6.40;99.90;;;;;;5062455;28;20560;-43
2023/02/16 07:49:00;;;;;;;43.10;29.20;;;6.50;99.90;;;;;;5061528;28;20121;-44
2023/02/16 07:51:29;;;;;;;45.30;29.13;;;6.60;99.90;;;;;;5061806;28;20040;-44
2023/02/16 07:53:56;;;;;;;40.97;27.73;;;6.60;99.90;;;;;;5061623;28;20032;-44
2023/02/16 07:56:24;;;;;;;40.83;27.77;;;6.70;99.90;;;;;;5062189;28;20557;-43
2023/02/16 07:58:52;;;;;;;43.22;29.30;;;6.70;99.90;;;;;;5060692;28;20039;-44
2023/02/16 08:01:21;;;;;;;40.67;27.27;;;6.80;99.90;;;;;;5061724;28;20109;-44
2023/02/16 08:03:47;;;;;;;41.67;28.10;;;6.80;99.90;;;;;;5061146;28;20167;-43
2023/02/16 08:06:13;;;;;;;44.85;29.02;;;6.90;99.90;;;;;;5061582;28;20139;-44
2023/02/16 08:08:39;;;;;;;39.25;27.10;;;7.00;99.90;;;;;;5060897;28;20563;-44
2023/02/16 08:11:14;;;;;;;42.15;28.17;;;7.00;99.90;;;;;;5061671;28;20028;-44
2023/02/16 08:13:41;;;;;;;41.83;27.85;;;7.10;99.90;;;;;;5060507;28;20052;-43
2023/02/16 08:16:11;;;;;;;41.58;29.55;;;7.10;99.90;;;;;;5061432;28;20029;-43
2023/02/16 08:18:37;;;;;;;40.97;27.67;;;7.20;99.90;;;;;;5060951;28;20057;-43
2023/02/16 08:21:14;;;;;;;41.10;28.00;;;7.20;99.90;;;;;;5060623;28;20831;-43
2023/02/16 08:23:42;;;;;;;41.50;27.75;;;7.20;99.90;;;;;;5060629;28;20766;-43
2023/02/16 08:26:09;;;;;;;37.05;26.48;;;7.30;99.90;;;;;;5060124;28;20078;-44
2023/02/16 08:28:36;;;;;;;41.55;28.38;;;7.30;99.90;;;;;;5061736;28;20105;-43
2023/02/16 08:31:05;;;;;;;39.22;27.90;;;7.30;99.90;;;;;;5061610;28;20036;-43
2023/02/16 08:33:32;;;;;;;40.67;27.75;;;7.30;99.90;;;;;;5061425;28;20139;-43
2023/02/16 08:35:58;;;;;;;41.13;28.65;;;7.40;99.90;;;;;;5060835;28;20073;-44
2023/02/16 08:38:23;;;;;;;38.30;25.88;;;7.40;99.90;;;;;;5061412;28;20032;-44
2023/02/16 08:40:49;;;;;;;38.25;26.20;;;7.40;99.90;;;;;;5059862;28;20060;-44
2023/02/16 08:43:15;;;;;;;39.00;27.08;;;7.40;99.90;;;;;;5061230;28;20044;-42
2023/02/16 08:45:47;;;;;;;40.35;26.95;;;7.40;99.90;;;;;;5060277;28;20024;-43
2023/02/16 08:48:13;;;;;;;39.45;27.08;;;7.40;99.90;;;;;;5061246;28;20029;-43
2023/02/16 08:50:52;;;;;;;38.85;27.13;;;7.40;99.90;;;;;;5060415;28;20045;-44
2023/02/16 08:53:19;;;;;;;37.00;25.42;;;7.50;99.90;;;;;;5061096;28;20636;-44
2023/02/16 08:55:56;;;;;;;37.72;26.42;;;7.50;99.90;;;;;;5059764;28;20028;-44
2023/02/16 08:58:25;;;;;;;39.10;26.83;;;7.50;99.90;;;;;;5061282;28;20850;-43
2023/02/16 09:00:54;;;;;;;38.45;25.63;;;7.60;99.90;;;;;;5060228;28;20102;-43
2023/02/16 09:03:20;;;;;;;44.58;27.23;;;7.60;99.90;;;;;;5059816;28;20056;-44
2023/02/16 09:05:47;;;;;;;36.15;24.77;;;7.60;99.90;;;;;;5060370;28;20368;-43
2023/02/16 09:08:14;;;;;;;36.97;25.63;;;7.60;99.90;;;;;;5060384;28;20112;-43
2023/02/16 09:10:41;;;;;;;39.40;26.67;;;7.70;99.90;;;;;;5059813;28;20765;-43
2023/02/16 09:13:13;;;;;;;36.75;25.05;;;7.70;99.90;;;;;;5060028;28;20029;-43
2023/02/16 09:15:38;;;;;;;37.90;25.80;;;7.70;99.90;;;;;;5059609;28;20079;-43
2023/02/16 09:18:04;;;;;;;37.17;26.67;;;7.80;99.90;;;;;;5049497;28;20032;-44
2023/02/16 09:20:30;;;;;;;39.45;26.52;;;7.80;99.90;;;;;;5060749;28;20036;-43
2023/02/16 09:22:56;;;;;;;39.22;26.60;;;7.80;99.90;;;;;;5059500;28;20098;-43
2023/02/16 09:25:23;;;;;;;38.60;26.33;;;7.80;99.90;;;;;;5060843;28;20753;-44
2023/02/16 09:27:48;;;;;;;38.97;26.95;;;7.90;99.90;;;;;;5058088;28;20078;-43
2023/02/16 09:30:14;;;;;;;35.85;25.42;;;7.90;99.90;;;;;;5059774;28;20048;-42
2023/02/16 09:32:41;;;;;;;38.75;26.88;;;7.90;99.90;;;;;;5060175;28;20043;-43
2023/02/16 09:35:07;;;;;;;37.63;25.73;;;7.90;99.90;;;;;;5060359;28;20028;-45
2023/02/16 09:37:32;;;;;;;35.58;25.80;;;7.90;99.90;;;;;;5059403;28;20035;-44
2023/02/16 09:39:58;;;;;;;33.28;23.67;;;8.00;99.90;;;;;;5059399;28;20024;-43
2023/02/16 09:42:31;;;;;;;36.70;26.88;;;8.00;99.90;;;;;;5060721;28;20017;-44
2023/02/16 09:45:16;;;;;;;35.55;24.77;;;8.10;99.90;;;;;;5059254;28;20790;-44
2023/02/16 09:47:44;;;;;;;37.40;26.50;;;8.10;99.90;;;;;;5059526;28;20028;-45
2023/02/16 09:50:39;;;;;;;36.00;25.80;;;8.10;99.90;;;;;;5059994;28;20737;-43
2023/02/16 09:53:08;;;;;;;39.97;26.85;;;8.10;99.90;;;;;;5056107;28;20480;-43
2023/02/16 09:56:01;;;;;;;36.60;24.95;;;8.20;99.90;;;;;;5060121;28;20036;-44
2023/02/16 09:58:38;;;;;;;37.60;27.35;;;8.10;99.90;;;;;;5059657;28;20089;-43
2023/02/16 10:01:32;;;;;;;41.03;27.88;;;8.20;99.90;;;;;;5060145;28;20025;-44
2023/02/16 10:04:34;;;;;;;38.22;28.10;;;8.20;99.90;;;;;;5059029;28;20044;-43
2023/02/16 10:07:39;;;;;;;41.50;28.52;;;8.30;99.90;;;;;;4986813;28;20038;-44
2023/02/16 10:10:07;;;;;;;37.08;25.63;;;8.30;99.90;;;;;;5050943;28;20028;-43
2023/02/16 10:12:42;;;;;;;41.05;28.85;;;8.30;99.90;;;;;;5059410;28;20029;-43
2023/02/16 10:15:15;;;;;;;39.80;28.40;;;8.30;99.90;;;;;;5050414;28;20020;-44
2023/02/16 10:18:07;;;;;;;35.90;25.92;;;8.30;99.90;;;;;;5059849;28;20016;-43
2023/02/16 10:20:39;;;;;;;39.55;26.15;;;8.40;99.90;;;;;;5051806;28;20039;-44
2023/02/16 10:23:36;;;;;;;35.30;25.75;;;8.40;99.90;;;;;;5059584;28;20040;-43
2023/02/16 10:26:12;;;;;;;36.50;26.27;;;8.40;99.90;;;;;;5059467;28;20026;-44
2023/02/16 10:28:54;;;;;;;38.88;27.70;;;8.50;99.90;;;;;;5059401;28;20047;-43
2023/02/16 10:31:42;;;;;;;36.72;25.13;;;8.50;99.90;;;;;;5060132;28;20025;-43
2023/02/16 10:34:28;;;;;;;37.90;26.55;;;8.50;99.90;;;;;;5059497;28;20028;-43
2023/02/16 10:37:02;;;;;;;35.08;25.63;;;8.50;99.90;;;;;;5059858;28;20355;-44
2023/02/16 10:39:52;;;;;;;38.60;26.67;;;8.50;99.90;;;;;;5058919;28;20024;-43
2023/02/16 10:42:42;;;;;;;43.58;27.98;;;8.40;99.90;;;;;;5039447;28;20029;-43
2023/02/16 10:45:20;;;;;;;35.10;24.90;;;8.40;99.90;;;;;;5057320;28;20064;-43
2023/02/16 10:47:46;;;;;;;39.35;26.13;;;8.30;99.90;;;;;;5058986;28;20028;-43
2023/02/16 10:50:30;;;;;;;38.63;28.45;;;8.30;99.90;;;;;;5058741;28;20827;-44
2023/02/16 10:53:00;;;;;;;37.47;26.45;;;8.30;99.90;;;;;;5058312;28;20730;-43
2023/02/16 10:55:26;;;;;;;38.03;27.23;;;8.30;99.90;;;;;;5058639;28;20028;-42
2023/02/16 10:58:00;;;;;;;37.63;27.02;;;8.30;99.90;;;;;;5060188;28;20115;-42
2023/02/16 11:00:44;;;;;;;41.42;28.95;;;8.30;99.90;;;;;;5062733;28;20027;-43
2023/02/16 11:03:12;;;;;;;39.85;28.75;;;8.30;99.90;;;;;;5042226;28;20087;-42
2023/02/16 11:05:40;;;;;;;37.53;27.38;;;8.30;99.90;;;;;;5059018;28;20029;-42
2023/02/16 11:08:10;;;;;;;37.45;26.90;;;8.30;99.90;;;;;;5042054;28;20362;-43
2023/02/16 11:10:53;;;;;;;40.85;27.73;;;8.30;99.90;;;;;;5057313;28;20090;-44
2023/02/16 11:13:31;;;;;;;39.40;28.58;;;8.30;99.90;;;;;;5042724;28;20053;-43
2023/02/16 11:16:01;;;;;;;36.35;26.90;;;8.30;99.90;;;;;;5057721;28;20111;-44
2023/02/16 11:18:36;;;;;;;43.03;30.15;;;8.30;99.90;;;;;;5043292;28;20370;-44
2023/02/16 11:21:03;;;;;;;38.70;28.08;;;8.30;99.90;;;;;;5058336;28;20032;-43
2023/02/16 11:23:31;;;;;;;38.45;28.70;;;8.30;99.90;;;;;;5061954;28;20032;-43
2023/02/16 11:25:57;;;;;;;42.08;29.45;;;8.30;99.90;;;;;;5061965;28;20183;-44
2023/02/16 11:28:47;;;;;;;34.67;26.42;;;8.30;99.90;;;;;;5062624;28;20783;-43
2023/02/16 11:31:33;;;;;;;39.70;27.27;;;8.30;99.90;;;;;;5051630;28;20059;-43
2023/02/16 11:34:11;;;;;;;41.33;28.30;;;8.40;99.90;;;;;;5042537;28;20025;-43
2023/02/16 11:36:45;;;;;;;38.70;28.08;;;8.40;99.90;;;;;;5058006;28;20543;-43
2023/02/16 11:39:24;;;;;;;36.50;27.30;;;8.40;99.90;;;;;;5042304;28;20040;-43
2023/02/16 11:42:00;;;;;;;39.28;27.63;;;8.40;99.90;;;;;;5057656;28;20563;-43
2023/02/16 11:44:33;;;;;;;40.58;29.25;;;8.40;99.90;;;;;;5042804;28;20524;-43
2023/02/16 11:47:19;;;;;;;43.60;30.42;;;8.40;99.90;;;;;;5058173;28;20036;-43
2023/02/16 11:49:44;;;;;;;39.70;27.80;;;8.50;99.90;;;;;;5042238;28;20060;-42
2023/02/16 11:52:39;;;;;;;34.42;25.95;;;8.50;99.90;;;;;;5058419;28;20025;-43
2023/02/16 11:55:25;;;;;;;37.35;28.40;;;8.60;99.90;;;;;;5028968;28;20037;-43
2023/02/16 11:57:51;;;;;;;36.00;26.10;;;8.60;99.90;;;;;;5060011;28;20111;-43
2023/02/16 12:00:22;;;;;;;39.90;28.35;;;8.70;99.90;;;;;;5062574;28;20020;-43
2023/02/16 12:03:15;;;;;;;32.58;24.48;;;8.80;99.90;;;;;;5061371;28;20048;-43
2023/02/16 12:06:06;;;;;;;39.10;29.02;;;8.90;99.90;;;;;;5061450;28;20115;-43
2023/02/16 12:08:48;;;;;;;38.90;28.70;;;8.90;99.90;;;;;;5062901;28;20392;-43
2023/02/16 12:11:44;;;;;;;37.15;28.45;;;9.10;99.90;;;;;;5061070;28;20036;-43
2023/02/16 12:14:26;;;;;;;42.55;29.55;;;9.10;99.90;;;;;;5052288;28;20016;-43
2023/02/16 12:17:07;;;;;;;34.30;25.33;;;9.20;99.90;;;;;;5060790;28;20547;-43
2023/02/16 12:19:43;;;;;;;39.25;26.85;;;9.20;99.90;;;;;;5061527;28;20044;-44
2023/02/16 12:22:25;;;;;;;37.88;29.45;;;9.30;99.90;;;;;;5060937;28;20112;-44
2023/02/16 12:25:17;;;;;;;40.35;28.80;;;9.30;99.90;;;;;;5061042;28;20028;-43
2023/02/16 12:27:55;;;;;;;35.75;26.45;;;9.40;99.90;;;;;;5061458;28;20041;-43
2023/02/16 12:30:46;;;;;;;41.42;30.50;;;9.50;99.90;;;;;;5061867;28;20036;-43
2023/02/16 12:33:25;;;;;;;37.15;27.38;;;9.50;99.90;;;;;;5060513;28;20870;-43
2023/02/16 12:36:02;;;;;;;41.53;29.77;;;9.60;99.90;;;;;;5060819;28;20457;-43
2023/02/16 12:38:55;;;;;;;37.47;26.60;;;9.60;99.90;;;;;;5062131;28;20028;-43
2023/02/16 12:41:43;;;;;;;37.10;28.60;;;9.60;99.90;;;;;;5040669;28;20420;-43
2023/02/16 12:44:30;;;;;;;43.75;30.92;;;9.60;99.90;;;;;;5060032;28;20032;-43
2023/02/16 12:47:07;;;;;;;43.45;29.73;;;9.60;99.90;;;;;;5060021;28;20036;-43
2023/02/16 12:49:55;;;;;;;41.22;30.17;;;9.70;99.90;;;;;;5060723;28;20478;-43
2023/02/16 12:52:34;;;;;;;40.38;30.00;;;9.80;99.90;;;;;;5061617;28;20035;-44
2023/02/16 12:55:38;;;;;;;40.92;29.15;;;9.90;99.90;;;;;;5057633;28;20028;-43
2023/02/16 12:58:13;;;;;;;40.42;29.45;;;9.90;99.90;;;;;;5060896;28;20074;-43
2023/02/16 13:00:48;;;;;;;43.05;31.23;;;10.00;99.90;;;;;;5050769;28;20032;-44
2023/02/16 13:03:38;;;;;;;36.13;27.75;;;10.00;99.90;;;;;;5061422;28;20052;-44
2023/02/16 13:06:16;;;;;;;38.55;27.80;;;10.00;99.90;;;;;;5053283;28;20036;-44
2023/02/16 13:09:11;;;;;;;38.20;28.63;;;10.10;99.90;;;;;;5059861;28;20392;-44
2023/02/16 13:11:51;;;;;;;38.10;28.50;;;10.10;99.90;;;;;;5060499;28;20024;-42
2023/02/16 13:14:22;;;;;;;34.92;25.00;;;10.10;99.90;;;;;;5061013;28;20032;-44
2023/02/16 13:17:01;;;;;;;35.58;26.70;;;10.20;99.90;;;;;;5060220;28;20383;-44
2023/02/16 13:19:29;;;;;;;35.85;27.38;;;10.20;99.90;;;;;;5060728;28;20019;-43
2023/02/16 13:22:18;;;;;;;32.70;24.10;;;10.30;99.90;;;;;;5058702;28;20032;-44
2023/02/16 13:25:01;;;;;;;33.30;25.38;;;10.30;99.90;;;;;;5059445;28;20035;-43
2023/02/16 13:28:03;;;;;;;33.08;24.55;;;10.30;99.90;;;;;;5060347;28;20040;-44
2023/02/16 13:30:47;;;;;;;32.63;25.17;;;10.40;99.90;;;;;;5059262;28;20837;-44
2023/02/16 13:33:24;;;;;;;34.85;27.13;;;10.40;99.90;;;;;;5060845;28;20032;-44
2023/02/16 13:36:03;;;;;;;34.33;26.08;;;10.40;99.90;;;;;;5059555;28;20466;-44
2023/02/16 13:38:39;;;;;;;31.15;23.52;;;10.40;99.90;;;;;;5061681;28;20028;-43
2023/02/16 13:41:09;;;;;;;33.50;24.42;;;10.50;99.90;;;;;;5060565;28;20123;-43
2023/02/16 13:43:45;;;;;;;35.65;26.35;;;10.40;99.90;;;;;;5059168;28;20051;-43
2023/02/16 13:46:30;;;;;;;34.47;25.48;;;10.40;99.90;;;;;;5060703;28;20094;-43